createdAt,value
2023-04-02T00:00:10.836Z,97374.47
2023-04-02T00:01:22.776Z,97369.06
2023-04-02T00:02:24.276Z,97372.88
2023-04-02T00:03:26.192Z,97346.00
2023-04-02T00:04:30.105Z,97374.50
2023-04-02T00:05:56.180Z,97379.38
2023-04-02T00:07:30.652Z,97379.94
2023-04-02T00:08:41.258Z,97375.84
2023-04-02T00:09:42.920Z,97378.03
2023-04-02T00:11:02.713Z,97379.13
2023-04-02T00:12:18.592Z,97376.94
2023-04-02T00:13:29.218Z,97376.41
2023-04-02T00:14:31.869Z,97376.09
2023-04-02T00:15:34.217Z,97380.47
2023-04-02T00:16:36.389Z,97382.91
2023-04-02T00:17:37.982Z,97385.63
2023-04-02T00:18:43.312Z,97368.22
2023-04-02T00:19:50.496Z,97392.63
2023-04-02T00:21:00.496Z,97393.47
2023-04-02T00:22:02.262Z,97397.25
2023-04-02T00:23:04.139Z,97388.34
2023-04-02T00:24:15.616Z,97378.03
2023-04-02T00:25:17.285Z,97387.78
2023-04-02T00:26:35.057Z,97396.75
2023-04-02T00:27:36.592Z,97391.06
2023-04-02T00:28:38.089Z,97394.06
2023-04-02T00:29:50.636Z,97361.50
2023-04-02T00:30:54.342Z,97390.81
2023-04-02T00:31:55.924Z,97402.69
2023-04-02T00:32:57.849Z,97398.88
2023-04-02T00:34:03.854Z,97398.88
2023-04-02T00:35:21.017Z,97399.72
2023-04-02T00:36:22.568Z,97397.00
2023-04-02T00:37:28.331Z,97403.50
2023-04-02T00:38:31.729Z,97409.94
2023-04-02T00:39:44.210Z,97389.03
2023-04-02T00:40:45.746Z,97403.97
2023-04-02T00:41:47.290Z,97363.47
2023-04-02T00:42:49.230Z,97409.34
2023-04-02T00:43:50.857Z,97406.34
2023-04-02T00:44:54.659Z,97390.66
2023-04-02T00:46:01.399Z,97394.44
2023-04-02T00:47:09.359Z,97392.88
2023-04-02T00:48:36.647Z,97398.00
2023-04-02T00:49:39.441Z,97403.78
2023-04-02T00:50:41.427Z,97406.47
2023-04-02T00:51:46.967Z,97405.38
2023-04-02T00:52:49.460Z,97394.50
2023-04-02T00:53:52.570Z,97398.28
2023-04-02T00:55:03.631Z,97413.47
2023-04-02T00:56:05.601Z,97412.41
2023-04-02T00:57:23.360Z,97411.28
2023-04-02T00:58:30.035Z,97408.88
2023-04-02T00:59:36.822Z,97409.13
2023-04-02T01:00:38.402Z,97414.53
2023-04-02T01:01:42.736Z,97404.19
2023-04-02T01:02:44.704Z,97423.44
2023-04-02T01:03:54.068Z,97419.94
2023-04-02T01:05:00.393Z,97424.28
2023-04-02T01:06:15.737Z,97409.38
2023-04-02T01:07:17.304Z,97423.78
2023-04-02T01:08:32.073Z,97424.88
2023-04-02T01:10:11.434Z,97412.72
2023-04-02T01:11:29.069Z,97428.16
2023-04-02T01:12:46.233Z,97414.84
2023-04-02T01:13:58.012Z,97429.75
2023-04-02T01:15:19.929Z,97427.59
2023-04-02T01:16:30.092Z,97422.50
2023-04-02T01:17:50.189Z,97432.50
2023-04-02T01:19:06.669Z,97431.97
2023-04-02T01:20:34.344Z,97433.84
2023-04-02T01:21:43.929Z,97432.53
2023-04-02T01:22:59.612Z,97433.34
2023-04-02T01:24:14.063Z,97426.88
2023-04-02T01:25:19.024Z,97429.78
2023-04-02T01:26:23.957Z,97436.84
2023-04-02T01:27:39.743Z,97441.16
2023-04-02T01:29:03.893Z,97436.00
2023-04-02T01:30:07.324Z,97436.03
2023-04-02T01:31:08.822Z,97442.78
2023-04-02T01:32:11.721Z,97441.16
2023-04-02T01:33:13.246Z,97433.03
2023-04-02T01:34:17.672Z,97413.13
2023-04-02T01:35:19.453Z,97424.56
2023-04-02T01:36:53.072Z,97438.16
2023-04-02T01:37:59.346Z,97438.72
2023-04-02T01:39:10.070Z,97444.44
2023-04-02T01:40:30.445Z,97449.84
2023-04-02T01:41:36.473Z,97440.56
2023-04-02T01:42:39.899Z,97444.38
2023-04-02T01:43:47.733Z,97450.06
2023-04-02T01:45:03.458Z,97450.06
2023-04-02T01:46:06.757Z,97454.97
2023-04-02T01:47:11.546Z,97455.50
2023-04-02T01:48:14.826Z,97455.75
2023-04-02T01:49:19.592Z,97450.06
2023-04-02T01:50:31.592Z,97452.25
2023-04-02T01:51:33.932Z,97438.44
2023-04-02T01:52:38.606Z,97450.34
2023-04-02T01:53:40.269Z,97455.22
2023-04-02T01:54:42.127Z,97456.81
2023-04-02T01:55:46.109Z,97462.22
2023-04-02T01:56:47.774Z,97459.53
2023-04-02T01:57:51.241Z,97451.13
2023-04-02T01:58:52.782Z,97451.19
2023-04-02T01:59:55.157Z,97456.59
2023-04-02T02:01:03.751Z,97458.50
2023-04-02T02:02:07.154Z,97442.22
2023-04-02T02:03:10.770Z,97463.66
2023-04-02T02:04:12.922Z,97459.84
2023-04-02T02:05:16.362Z,97454.72
2023-04-02T02:06:18.341Z,97462.03
2023-04-02T02:07:20.610Z,97462.59
2023-04-02T02:08:37.803Z,97467.22
2023-04-02T02:09:39.960Z,97467.75
2023-04-02T02:10:50.967Z,97468.56
2023-04-02T02:11:52.552Z,97463.41
2023-04-02T02:12:54.388Z,97465.03
2023-04-02T02:13:58.723Z,97464.50
2023-04-02T02:15:00.778Z,97466.34
2023-04-02T02:16:03.406Z,97473.94
2023-04-02T02:17:05.036Z,97469.34
2023-04-02T02:18:08.760Z,97472.63
2023-04-02T02:19:29.258Z,97475.88
2023-04-02T02:20:30.805Z,97463.66
2023-04-02T02:21:46.130Z,97470.72
2023-04-02T02:22:48.378Z,97469.34
2023-04-02T02:23:49.917Z,97478.59
2023-04-02T02:24:51.766Z,97472.09
2023-04-02T02:25:53.290Z,97480.22
2023-04-02T02:27:21.359Z,97482.03
2023-04-02T02:28:26.051Z,97467.63
2023-04-02T02:29:27.589Z,97480.41
2023-04-02T02:30:39.270Z,97492.56
2023-04-02T02:31:41.928Z,97477.94
2023-04-02T02:32:52.076Z,97488.56
2023-04-02T02:34:02.766Z,97481.00
2023-04-02T02:35:11.266Z,97489.66
2023-04-02T02:36:29.388Z,97489.38
2023-04-02T02:37:33.626Z,97493.13
2023-04-02T02:38:35.029Z,97495.31
2023-04-02T02:39:42.043Z,97486.59
2023-04-02T02:40:44.095Z,97483.06
2023-04-02T02:42:04.333Z,97491.53
2023-04-02T02:43:06.299Z,97493.47
2023-04-02T02:44:11.216Z,97495.31
2023-04-02T02:45:15.494Z,97499.41
2023-04-02T02:46:18.232Z,97495.84
2023-04-02T02:47:22.610Z,97497.47
2023-04-02T02:48:34.364Z,97499.09
2023-04-02T02:49:39.519Z,97494.22
2023-04-02T02:50:41.711Z,97499.63
2023-04-02T02:51:49.201Z,97494.72
2023-04-02T02:52:54.989Z,97504.53
2023-04-02T02:54:00.525Z,97490.97
2023-04-02T02:55:09.650Z,97498.25
2023-04-02T02:56:12.609Z,97501.72
2023-04-02T02:57:17.115Z,97495.38
2023-04-02T02:58:23.111Z,97508.31
2023-04-02T02:59:24.620Z,97498.56
2023-04-02T03:00:26.454Z,97508.31
2023-04-02T03:01:29.395Z,97505.25
2023-04-02T03:02:31.006Z,97518.84
2023-04-02T03:03:32.915Z,97499.59
2023-04-02T03:04:37.224Z,97480.59
2023-04-02T03:05:38.697Z,97510.19
2023-04-02T03:06:40.670Z,97515.03
2023-04-02T03:07:42.194Z,97508.75
2023-04-02T03:08:45.528Z,97508.75
2023-04-02T03:09:57.529Z,97514.75
2023-04-02T03:11:03.201Z,97506.34
2023-04-02T03:12:37.026Z,97524.22
2023-04-02T03:13:38.887Z,97518.28
2023-04-02T03:14:44.347Z,97525.88
2023-04-02T03:16:05.795Z,97486.00
2023-04-02T03:17:13.110Z,97528.41
2023-04-02T03:18:23.138Z,97528.41
2023-04-02T03:19:30.309Z,97533.03
2023-04-02T03:20:45.727Z,97534.31
2023-04-02T03:22:12.566Z,97535.16
2023-04-02T03:23:23.670Z,97536.00
2023-04-02T03:24:32.458Z,97537.09
2023-04-02T03:25:42.409Z,97547.66
2023-04-02T03:27:05.262Z,97534.41
2023-04-02T03:28:11.253Z,97537.16
2023-04-02T03:29:16.746Z,97518.06
2023-04-02T03:30:27.130Z,97548.50
2023-04-02T03:31:37.297Z,97557.72
2023-04-02T03:32:39.171Z,97553.13
2023-04-02T03:33:43.917Z,97537.00
2023-04-02T03:34:51.576Z,97542.97
2023-04-02T03:36:07.975Z,97554.41
2023-04-02T03:37:23.062Z,97538.72
2023-04-02T03:38:27.621Z,97558.28
2023-04-02T03:39:51.082Z,97558.03
2023-04-02T03:41:02.219Z,97544.44
2023-04-02T03:42:10.061Z,97551.19
2023-04-02T03:43:22.798Z,97553.38
2023-04-02T03:44:34.604Z,97553.38
2023-04-02T03:45:38.216Z,97553.13
2023-04-02T03:46:42.188Z,97551.72
2023-04-02T03:48:32.933Z,97557.72
2023-04-02T03:49:40.690Z,97558.84
2023-04-02T03:51:05.647Z,97557.19
2023-04-02T03:52:28.990Z,97564.00
2023-04-02T03:53:32.482Z,97567.00
2023-04-02T03:54:34.038Z,97531.06
2023-04-02T03:55:37.489Z,97562.00
2023-04-02T03:56:40.039Z,97570.16
2023-04-02T03:58:00.764Z,97565.81
2023-04-02T03:59:09.608Z,97543.44
2023-04-02T04:00:23.755Z,97580.03
2023-04-02T04:01:32.336Z,97576.75
2023-04-02T04:02:35.021Z,97583.84
2023-04-02T04:03:36.504Z,97581.66
2023-04-02T04:04:40.090Z,97583.31
2023-04-02T04:06:01.735Z,97580.59
2023-04-02T04:07:03.323Z,97577.13
2023-04-02T04:08:12.592Z,97561.34
2023-04-02T04:09:30.031Z,97589.34
2023-04-02T04:10:31.819Z,97577.72
2023-04-02T04:11:35.329Z,97545.34
2023-04-02T04:12:40.517Z,97584.16
2023-04-02T04:13:50.473Z,97587.44
2023-04-02T04:15:16.832Z,97592.09
2023-04-02T04:16:21.894Z,97595.94
2023-04-02T04:17:35.525Z,97592.34
2023-04-02T04:18:43.742Z,97599.75
2023-04-02T04:20:07.786Z,97605.59
2023-04-02T04:21:30.849Z,97601.72
2023-04-02T04:22:34.009Z,97607.97
2023-04-02T04:23:36.973Z,97606.06
2023-04-02T04:24:39.451Z,97609.03
2023-04-02T04:25:40.960Z,97596.53
2023-04-02T04:26:53.909Z,97608.22
2023-04-02T04:28:13.582Z,97608.84
2023-04-02T04:29:38.168Z,97611.53
2023-04-02T04:31:00.116Z,97606.69
2023-04-02T04:32:33.783Z,97604.56
2023-04-02T04:33:40.716Z,97617.06
2023-04-02T04:34:53.570Z,97617.03
2023-04-02T04:35:56.785Z,97615.66
2023-04-02T04:37:01.828Z,97621.81
2023-04-02T04:38:15.609Z,97617.91
2023-04-02T04:39:21.463Z,97606.94
2023-04-02T04:40:24.126Z,97628.09
2023-04-02T04:41:31.050Z,97623.47
2023-04-02T04:42:33.975Z,97621.31
2023-04-02T04:43:54.173Z,97625.59
2023-04-02T04:45:02.566Z,97622.78
2023-04-02T04:46:06.707Z,97629.22
2023-04-02T04:47:11.008Z,97631.88
2023-04-02T04:48:20.984Z,97636.78
2023-04-02T04:49:34.067Z,97632.47
2023-04-02T04:50:39.026Z,97644.72
2023-04-02T04:52:01.083Z,97640.66
2023-04-02T04:53:07.165Z,97648.00
2023-04-02T04:54:15.398Z,97626.81
2023-04-02T04:55:35.528Z,97631.69
2023-04-02T04:56:37.540Z,97626.81
2023-04-02T04:57:39.031Z,97634.06
2023-04-02T04:59:02.104Z,97645.50
2023-04-02T05:00:17.403Z,97632.50
2023-04-02T05:01:22.635Z,97652.88
2023-04-02T05:02:26.799Z,97645.50
2023-04-02T05:03:38.300Z,97658.56
2023-04-02T05:04:41.515Z,97657.75
2023-04-02T05:05:43.048Z,97645.53
2023-04-02T05:07:06.137Z,97654.22
2023-04-02T05:08:16.928Z,97658.56
2023-04-02T05:09:33.771Z,97663.94
2023-04-02T05:11:15.617Z,97675.34
2023-04-02T05:12:39.821Z,97650.91
2023-04-02T05:13:49.718Z,97669.41
2023-04-02T05:14:52.303Z,97658.22
2023-04-02T05:16:22.553Z,97677.50
2023-04-02T05:17:47.998Z,97674.81
2023-04-02T05:19:12.245Z,97677.50
2023-04-02T05:20:34.461Z,97672.56
2023-04-02T05:22:07.663Z,97679.06
2023-04-02T05:23:29.717Z,97680.47
2023-04-02T05:24:59.383Z,97679.00
2023-04-02T05:26:12.075Z,97685.94
2023-04-02T05:27:21.671Z,97685.59
2023-04-02T05:28:31.941Z,97682.63
2023-04-02T05:29:36.184Z,97685.88
2023-04-02T05:30:46.806Z,97686.13
2023-04-02T05:31:57.959Z,97691.88
2023-04-02T05:33:05.173Z,97690.03
2023-04-02T05:34:06.856Z,97687.31
2023-04-02T05:35:14.926Z,97701.69
2023-04-02T05:36:24.674Z,97690.63
2023-04-02T05:37:27.432Z,97691.25
2023-04-02T05:38:30.212Z,97676.50
2023-04-02T05:39:32.718Z,97692.28
2023-04-02T05:40:40.077Z,97696.34
2023-04-02T05:41:45.912Z,97691.47
2023-04-02T05:42:49.273Z,97707.13
2023-04-02T05:43:51.735Z,97693.75
2023-04-02T05:45:08.614Z,97705.38
2023-04-02T05:46:16.943Z,97712.47
2023-04-02T05:47:21.088Z,97706.75
2023-04-02T05:48:44.022Z,97710.25
2023-04-02T05:50:08.642Z,97717.94
2023-04-02T05:51:16.498Z,97696.22
2023-04-02T05:52:25.352Z,97703.50
2023-04-02T05:54:05.959Z,97708.94
2023-04-02T05:55:13.139Z,97705.28
2023-04-02T05:56:24.790Z,97719.22
2023-04-02T05:57:42.372Z,97710.00
2023-04-02T05:58:53.195Z,97712.16
2023-04-02T05:59:56.582Z,97714.91
2023-04-02T06:01:04.365Z,97720.03
2023-04-02T06:02:21.620Z,97726.06
2023-04-02T06:04:06.998Z,97724.88
2023-04-02T06:05:19.307Z,97717.53
2023-04-02T06:06:43.552Z,97727.09
2023-04-02T06:07:46.529Z,97733.28
2023-04-02T06:08:49.905Z,97730.94
2023-04-02T06:10:00.323Z,97735.22
2023-04-02T06:11:11.502Z,97734.84
2023-04-02T06:12:27.489Z,97725.63
2023-04-02T06:13:29.000Z,97737.00
2023-04-02T06:14:30.531Z,97742.34
2023-04-02T06:15:32.802Z,97722.22
2023-04-02T06:16:36.917Z,97739.13
2023-04-02T06:17:58.629Z,97742.47
2023-04-02T06:19:00.313Z,97747.38
2023-04-02T06:20:01.839Z,97735.09
2023-04-02T06:21:03.747Z,97745.66
2023-04-02T06:22:33.142Z,97740.19
2023-04-02T06:23:55.603Z,97744.78
2023-04-02T06:25:25.377Z,97745.19
2023-04-02T06:26:38.293Z,97741.66
2023-04-02T06:27:40.057Z,97756.63
2023-04-02T06:28:41.489Z,97755.00
2023-04-02T06:29:43.229Z,97760.16
2023-04-02T06:30:44.886Z,97769.09
2023-04-02T06:31:52.152Z,97764.50
2023-04-02T06:32:53.712Z,97767.28
2023-04-02T06:33:56.406Z,97758.31
2023-04-02T06:34:58.323Z,97760.50
2023-04-02T06:35:59.887Z,97765.72
2023-04-02T06:37:21.780Z,97767.09
2023-04-02T06:38:28.128Z,97772.84
2023-04-02T06:39:29.641Z,97768.53
2023-04-02T06:40:34.374Z,97769.00
2023-04-02T06:41:36.153Z,97764.66
2023-04-02T06:42:38.037Z,97780.66
2023-04-02T06:43:43.191Z,97777.56
2023-04-02T06:44:44.713Z,97773.78
2023-04-02T06:45:46.366Z,97774.34
2023-04-02T06:46:51.743Z,97786.06
2023-04-02T06:47:54.135Z,97789.53
2023-04-02T06:48:59.562Z,97788.91
2023-04-02T06:50:27.840Z,97791.94
2023-04-02T06:51:29.364Z,97788.72
2023-04-02T06:52:38.703Z,97793.81
2023-04-02T06:53:44.458Z,97789.72
2023-04-02T06:54:46.572Z,97780.78
2023-04-02T06:55:52.456Z,97787.38
2023-04-02T06:56:56.380Z,97785.44
2023-04-02T06:57:58.021Z,97798.22
2023-04-02T06:58:59.768Z,97801.50
2023-04-02T07:00:01.336Z,97805.56
2023-04-02T07:01:02.925Z,97793.72
2023-04-02T07:02:34.842Z,97808.53
2023-04-02T07:03:36.806Z,97804.81
2023-04-02T07:04:38.370Z,97797.34
2023-04-02T07:05:42.443Z,97814.47
2023-04-02T07:06:44.560Z,97811.53
2023-04-02T07:07:46.212Z,97810.97
2023-04-02T07:08:48.000Z,97823.69
2023-04-02T07:09:49.496Z,97812.28
2023-04-02T07:10:51.381Z,97823.38
2023-04-02T07:11:52.925Z,97821.41
2023-04-02T07:12:54.424Z,97828.78
2023-04-02T07:13:56.156Z,97805.63
2023-04-02T07:14:57.718Z,97824.50
2023-04-02T07:15:59.265Z,97832.38
2023-04-02T07:17:00.973Z,97822.63
2023-04-02T07:18:02.991Z,97832.97
2023-04-02T07:19:05.116Z,97834.34
2023-04-02T07:20:07.310Z,97836.28
2023-04-02T07:21:08.821Z,97818.09
2023-04-02T07:22:10.779Z,97837.41
2023-04-02T07:23:14.850Z,97833.13
2023-04-02T07:24:18.151Z,97841.81
2023-04-02T07:25:19.731Z,97830.31
2023-04-02T07:26:25.334Z,97837.66
2023-04-02T07:27:28.028Z,97850.47
2023-04-02T07:28:29.902Z,97852.28
2023-04-02T07:29:31.576Z,97849.66
2023-04-02T07:30:33.078Z,97862.06
2023-04-02T07:31:34.612Z,97862.28
2023-04-02T07:32:36.696Z,97862.06
2023-04-02T07:33:39.011Z,97866.69
2023-04-02T07:34:41.565Z,97868.34
2023-04-02T07:35:43.335Z,97873.56
2023-04-02T07:36:44.897Z,97842.63
2023-04-02T07:37:46.636Z,97867.00
2023-04-02T07:38:48.221Z,97875.28
2023-04-02T07:39:49.705Z,97875.78
2023-04-02T07:40:51.279Z,97881.50
2023-04-02T07:41:57.219Z,97872.91
2023-04-02T07:42:58.827Z,97882.34
2023-04-02T07:44:00.393Z,97886.84
2023-04-02T07:45:04.077Z,97892.28
2023-04-02T07:46:07.101Z,97895.56
2023-04-02T07:47:10.558Z,97894.59
2023-04-02T07:48:12.989Z,97891.19
2023-04-02T07:49:14.482Z,97899.06
2023-04-02T07:50:16.105Z,97886.81
2023-04-02T07:51:19.577Z,97894.25
2023-04-02T07:52:21.755Z,97892.94
2023-04-02T07:53:34.312Z,97902.75
2023-04-02T07:54:35.940Z,97913.34
2023-04-02T07:55:37.774Z,97911.53
2023-04-02T07:56:39.336Z,97914.75
2023-04-02T07:57:51.051Z,97904.41
2023-04-02T07:58:52.678Z,97917.13
2023-04-02T07:59:56.576Z,97907.63
2023-04-02T08:00:58.709Z,97904.34
2023-04-02T08:02:00.259Z,97921.63
2023-04-02T08:03:01.866Z,97923.75
2023-04-02T08:04:04.274Z,97927.53
2023-04-02T08:05:06.747Z,97934.59
2023-04-02T08:06:08.274Z,97932.88
2023-04-02T08:07:10.119Z,97932.72
2023-04-02T08:08:11.592Z,97939.75
2023-04-02T08:09:14.179Z,97942.47
2023-04-02T08:10:15.757Z,97934.03
2023-04-02T08:11:17.437Z,97940.63
2023-04-02T08:12:19.347Z,97949.06
2023-04-02T08:13:20.939Z,97950.47
2023-04-02T08:14:22.901Z,97950.31
2023-04-02T08:15:24.436Z,97952.22
2023-04-02T08:16:26.270Z,97952.50
2023-04-02T08:17:31.811Z,97951.38
2023-04-02T08:18:33.374Z,97944.22
2023-04-02T08:19:44.440Z,97962.34
2023-04-02T08:20:53.520Z,97966.03
2023-04-02T08:21:55.727Z,97964.22
2023-04-02T08:22:58.212Z,97970.09
2023-04-02T08:23:59.712Z,97960.94
2023-04-02T08:25:01.207Z,97970.19
2023-04-02T08:26:02.821Z,97968.50
2023-04-02T08:27:04.893Z,97975.94
2023-04-02T08:28:06.486Z,97976.03
2023-04-02T08:29:08.063Z,97982.03
2023-04-02T08:30:11.518Z,97983.66
2023-04-02T08:31:13.417Z,97985.94
2023-04-02T08:32:16.528Z,97974.81
2023-04-02T08:33:18.195Z,97990.28
2023-04-02T08:34:19.712Z,97980.97
2023-04-02T08:35:23.439Z,97991.09
2023-04-02T08:36:31.061Z,97997.09
2023-04-02T08:37:33.004Z,97992.69
2023-04-02T08:38:34.826Z,97996.22
2023-04-02T08:39:36.310Z,97994.91
2023-04-02T08:40:42.460Z,98002.69
2023-04-02T08:41:58.867Z,98008.00
2023-04-02T08:43:33.940Z,97988.75
2023-04-02T08:44:43.598Z,98010.97
2023-04-02T08:46:06.632Z,98005.78
2023-04-02T08:47:08.647Z,98008.00
2023-04-02T08:48:10.921Z,98015.75
2023-04-02T08:49:17.910Z,98018.56
2023-04-02T08:50:34.528Z,98012.84
2023-04-02T08:51:36.750Z,98029.44
2023-04-02T08:52:39.006Z,97999.06
2023-04-02T08:53:41.916Z,98029.75
2023-04-02T08:54:43.655Z,98038.72
2023-04-02T08:56:08.486Z,98023.66
2023-04-02T08:57:31.989Z,98034.13
2023-04-02T08:58:41.677Z,98033.81
2023-04-02T08:59:43.442Z,98037.09
2023-04-02T09:00:44.969Z,98027.56
2023-04-02T09:01:52.249Z,98045.06
2023-04-02T09:03:30.958Z,98043.78
2023-04-02T09:04:32.543Z,98044.75
2023-04-02T09:05:34.948Z,98052.25
2023-04-02T09:06:37.292Z,98056.97
2023-04-02T09:07:38.821Z,98056.56
2023-04-02T09:08:40.671Z,98054.00
2023-04-02T09:09:42.224Z,98051.78
2023-04-02T09:10:49.909Z,98042.72
2023-04-02T09:12:04.186Z,98058.28
2023-04-02T09:13:17.155Z,98061.72
2023-04-02T09:14:27.409Z,98066.91
2023-04-02T09:15:34.165Z,98055.03
2023-04-02T09:16:51.308Z,98073.78
2023-04-02T09:18:19.854Z,98071.75
2023-04-02T09:19:22.406Z,98072.50
2023-04-02T09:20:27.673Z,98069.06
2023-04-02T09:21:37.704Z,98073.53
2023-04-02T09:22:39.847Z,98073.72
2023-04-02T09:23:41.562Z,98060.19
2023-04-02T09:24:43.088Z,98079.13
2023-04-02T09:25:54.239Z,98088.97
2023-04-02T09:27:02.789Z,98091.84
2023-04-02T09:28:05.477Z,98091.50
2023-04-02T09:29:12.756Z,98096.19
2023-04-02T09:30:32.431Z,98098.81
2023-04-02T09:31:39.137Z,98086.16
2023-04-02T09:32:49.816Z,98106.25
2023-04-02T09:33:51.626Z,98104.53
2023-04-02T09:35:25.563Z,98103.97
2023-04-02T09:36:40.430Z,98107.09
2023-04-02T09:37:43.843Z,98107.69
2023-04-02T09:39:18.560Z,98112.44
2023-04-02T09:40:27.423Z,98114.38
2023-04-02T09:41:29.633Z,98127.09
2023-04-02T09:42:34.360Z,98122.75
2023-04-02T09:43:39.364Z,98124.53
2023-04-02T09:44:40.952Z,98127.00
2023-04-02T09:45:43.070Z,98125.47
2023-04-02T09:47:04.735Z,98129.94
2023-04-02T09:48:26.081Z,98121.25
2023-04-02T09:49:29.461Z,98115.38
2023-04-02T09:50:32.153Z,98139.41
2023-04-02T09:51:35.027Z,98137.59
2023-04-02T09:52:36.643Z,98145.88
2023-04-02T09:54:03.168Z,98146.66
2023-04-02T09:55:26.317Z,98147.09
2023-04-02T09:56:28.307Z,98154.06
2023-04-02T09:57:31.492Z,98152.41
2023-04-02T09:58:33.133Z,98150.88
2023-04-02T09:59:34.700Z,98158.53
2023-04-02T10:00:36.660Z,98162.75
2023-04-02T10:01:41.651Z,98149.66
2023-04-02T10:02:43.821Z,98162.38
2023-04-02T10:03:46.526Z,98167.53
2023-04-02T10:04:48.659Z,98159.78
2023-04-02T10:06:12.358Z,98158.50
2023-04-02T10:07:39.844Z,98172.91
2023-04-02T10:08:42.472Z,98168.19
2023-04-02T10:09:43.984Z,98173.31
2023-04-02T10:10:50.803Z,98173.03
2023-04-02T10:11:52.321Z,98155.19
2023-04-02T10:13:11.949Z,98167.91
2023-04-02T10:14:19.276Z,98184.31
2023-04-02T10:15:22.796Z,98181.84
2023-04-02T10:16:32.886Z,98175.84
2023-04-02T10:17:35.948Z,98179.38
2023-04-02T10:18:43.196Z,98192.78
2023-04-02T10:19:49.797Z,98176.53
2023-04-02T10:20:51.716Z,98186.84
2023-04-02T10:21:54.504Z,98178.44
2023-04-02T10:22:56.288Z,98188.16
2023-04-02T10:23:59.384Z,98190.78
2023-04-02T10:25:01.068Z,98192.91
2023-04-02T10:26:28.508Z,98200.78
2023-04-02T10:28:09.025Z,98196.53
2023-04-02T10:29:44.694Z,98200.72
2023-04-02T10:31:17.359Z,98203.09
2023-04-02T10:32:22.126Z,98197.19
2023-04-02T10:33:30.368Z,98204.59
2023-04-02T10:34:36.218Z,98205.19
2023-04-02T10:36:07.957Z,98196.78
2023-04-02T10:37:34.164Z,98207.69
2023-04-02T10:38:42.616Z,98204.97
2023-04-02T10:39:53.870Z,98207.06
2023-04-02T10:40:59.502Z,98208.06
2023-04-02T10:42:30.400Z,98208.19
2023-04-02T10:43:46.589Z,98218.78
2023-04-02T10:45:01.864Z,98217.50
2023-04-02T10:46:09.390Z,98222.13
2023-04-02T10:47:31.066Z,98223.19
2023-04-02T10:48:40.601Z,98220.66
2023-04-02T10:50:00.608Z,98209.91
2023-04-02T10:51:23.765Z,98223.22
2023-04-02T10:52:42.542Z,98223.03
2023-04-02T10:53:54.306Z,98229.09
2023-04-02T10:55:01.855Z,98223.69
2023-04-02T10:56:05.629Z,98235.47
2023-04-02T10:57:14.525Z,98225.97
2023-04-02T10:58:26.525Z,98240.69
2023-04-02T10:59:30.404Z,98233.97
2023-04-02T11:00:34.875Z,98237.34
2023-04-02T11:01:36.407Z,98239.03
2023-04-02T11:02:46.877Z,98241.44
2023-04-02T11:03:50.703Z,98243.69
2023-04-02T11:04:52.267Z,98249.31
2023-04-02T11:05:56.060Z,98254.88
2023-04-02T11:07:14.439Z,98254.66
2023-04-02T11:08:23.942Z,98260.06
2023-04-02T11:09:26.710Z,98243.34
2023-04-02T11:10:30.810Z,98260.88
2023-04-02T11:11:36.694Z,98268.66
2023-04-02T11:12:42.204Z,98273.59
2023-04-02T11:13:48.194Z,98274.38
2023-04-02T11:14:49.858Z,98257.19
2023-04-02T11:15:51.610Z,98264.38
2023-04-02T11:16:54.173Z,98270.97
2023-04-02T11:17:55.721Z,98275.09
2023-04-02T11:19:24.597Z,98271.50
2023-04-02T11:20:48.654Z,98276.81
2023-04-02T11:21:58.537Z,98260.78
2023-04-02T11:23:13.302Z,98284.78
2023-04-02T11:24:33.594Z,98281.59
2023-04-02T11:25:35.283Z,98284.06
2023-04-02T11:26:41.467Z,98283.38
2023-04-02T11:27:43.005Z,98285.13
2023-04-02T11:28:44.514Z,98279.03
2023-04-02T11:30:20.308Z,98289.13
2023-04-02T11:31:21.981Z,98293.25
2023-04-02T11:32:27.588Z,98296.19
2023-04-02T11:33:39.196Z,98298.44
2023-04-02T11:34:46.270Z,98302.56
2023-04-02T11:35:48.567Z,98313.84
2023-04-02T11:36:55.793Z,98309.72
2023-04-02T11:38:09.469Z,98302.78
2023-04-02T11:39:17.557Z,98309.22
2023-04-02T11:40:19.176Z,98300.41
2023-04-02T11:42:00.497Z,98309.63
2023-04-02T11:43:32.717Z,98307.97
2023-04-02T11:44:34.309Z,98317.72
2023-04-02T11:45:52.632Z,98322.31
2023-04-02T11:47:14.878Z,98308.56
2023-04-02T11:48:16.289Z,98317.72
2023-04-02T11:49:38.101Z,98315.94
2023-04-02T11:50:41.007Z,98322.63
2023-04-02T11:51:45.228Z,98315.22
2023-04-02T11:52:46.665Z,98315.00
2023-04-02T11:53:51.673Z,98320.75
2023-04-02T11:55:18.595Z,98310.91
2023-04-02T11:56:27.555Z,98319.09
2023-04-02T11:57:37.362Z,98332.06
2023-04-02T11:59:03.493Z,98305.13
2023-04-02T12:00:36.343Z,98329.00
2023-04-02T12:01:59.618Z,98337.09
2023-04-02T12:03:19.881Z,98331.94
2023-04-02T12:04:34.305Z,98323.59
2023-04-02T12:05:46.345Z,98330.88
2023-04-02T12:07:05.663Z,98336.66
2023-04-02T12:08:23.992Z,98335.59
2023-04-02T12:09:27.609Z,98341.56
2023-04-02T12:10:32.589Z,98345.91
2023-04-02T12:11:36.819Z,98347.78
2023-04-02T12:12:38.607Z,98353.94
2023-04-02T12:13:40.042Z,98349.91
2023-04-02T12:14:45.617Z,98353.09
2023-04-02T12:15:47.660Z,98346.41
2023-04-02T12:16:49.699Z,98354.00
2023-04-02T12:17:51.404Z,98356.38
2023-04-02T12:18:54.482Z,98351.56
2023-04-02T12:19:57.509Z,98366.47
2023-04-02T12:20:59.030Z,98345.91
2023-04-02T12:22:00.615Z,98367.81
2023-04-02T12:23:02.314Z,98365.44
2023-04-02T12:24:03.948Z,98367.53
2023-04-02T12:25:26.988Z,98355.81
2023-04-02T12:26:37.296Z,98370.38
2023-04-02T12:27:42.439Z,98369.19
2023-04-02T12:28:46.478Z,98372.03
2023-04-02T12:29:49.517Z,98369.56
2023-04-02T12:30:51.720Z,98372.50
2023-04-02T12:31:54.375Z,98370.75
2023-04-02T12:32:56.801Z,98358.59
2023-04-02T12:33:58.409Z,98376.84
2023-04-02T12:35:03.461Z,98374.00
2023-04-02T12:36:11.759Z,98362.44
2023-04-02T12:37:23.607Z,98387.81
2023-04-02T12:38:30.052Z,98355.81
2023-04-02T12:39:32.976Z,98373.50
2023-04-02T12:40:34.794Z,98385.38
2023-04-02T12:41:36.793Z,98386.69
2023-04-02T12:42:38.322Z,98386.44
2023-04-02T12:43:40.141Z,98390.34
2023-04-02T12:44:48.561Z,98392.81
2023-04-02T12:45:54.405Z,98396.13
2023-04-02T12:46:56.193Z,98390.94
2023-04-02T12:47:58.316Z,98392.09
2023-04-02T12:49:07.974Z,98390.19
2023-04-02T12:50:14.705Z,98395.25
2023-04-02T12:51:17.556Z,98395.97
2023-04-02T12:52:19.670Z,98403.16
2023-04-02T12:53:29.674Z,98400.91
2023-04-02T12:54:32.622Z,98399.72
2023-04-02T12:55:34.202Z,98405.13
2023-04-02T12:56:35.752Z,98408.19
2023-04-02T12:57:38.963Z,98407.03
2023-04-02T12:58:41.605Z,98402.81
2023-04-02T12:59:43.617Z,98405.50
2023-04-02T13:00:45.094Z,98377.63
2023-04-02T13:01:57.136Z,98407.84
2023-04-02T13:03:13.408Z,98411.53
2023-04-02T13:04:15.202Z,98410.81
2023-04-02T13:05:35.859Z,98416.00
2023-04-02T13:06:37.522Z,98412.13
2023-04-02T13:07:39.093Z,98410.53
2023-04-02T13:08:43.762Z,98410.06
2023-04-02T13:09:55.710Z,98404.16
2023-04-02T13:10:59.382Z,98411.91
2023-04-02T13:12:01.175Z,98419.31
2023-04-02T13:13:03.193Z,98413.44
2023-04-02T13:14:06.451Z,98410.25
2023-04-02T13:15:09.231Z,98405.22
2023-04-02T13:16:19.885Z,98422.53
2023-04-02T13:17:43.677Z,98422.56
2023-04-02T13:18:47.034Z,98416.34
2023-04-02T13:19:48.554Z,98423.84
2023-04-02T13:20:59.478Z,98424.91
2023-04-02T13:22:01.907Z,98425.84